createdAt,value
2023-02-14T00:03:24.769Z,10.05
2023-02-14T00:08:26.103Z,9.25
2023-02-14T00:13:27.414Z,9.60
2023-02-14T00:18:48.741Z,9.38
2023-02-14T00:23:50.064Z,10.10
2023-02-14T00:28:51.364Z,8.75
2023-02-14T00:33:52.670Z,9.00
2023-02-14T00:38:55.417Z,8.95
2023-02-14T00:43:56.853Z,9.35
2023-02-14T00:48:58.436Z,9.90
2023-02-14T00:53:59.839Z,12.52
2023-02-14T00:59:01.225Z,8.77
2023-02-14T01:04:02.771Z,10.27
2023-02-14T01:09:04.285Z,12.27
2023-02-14T01:14:07.376Z,9.00
2023-02-14T01:19:09.222Z,13.15
2023-02-14T01:24:11.861Z,9.43
2023-02-14T01:29:13.193Z,9.20
2023-02-14T01:34:14.574Z,11.15
2023-02-14T01:39:17.648Z,10.15
2023-02-14T01:44:25.985Z,9.85
2023-02-14T01:49:29.725Z,8.60
2023-02-14T01:54:32.047Z,10.25
2023-02-14T01:59:36.275Z,13.18
2023-02-14T02:04:41.340Z,7.53
2023-02-14T02:09:56.493Z,9.07
2023-02-14T02:14:58.558Z,8.75
2023-02-14T02:19:59.857Z,7.88
2023-02-14T02:25:04.335Z,11.43
2023-02-14T02:30:35.588Z,8.05
2023-02-14T02:35:37.055Z,11.88
2023-02-14T02:40:39.822Z,8.30
2023-02-14T02:46:06.803Z,11.23
2023-02-14T02:51:29.720Z,9.00
2023-02-14T02:56:46.217Z,8.25
2023-02-14T03:01:50.480Z,9.77
2023-02-14T03:06:52.492Z,7.18
2023-02-14T03:12:17.370Z,9.85
2023-02-14T03:17:40.369Z,8.50
2023-02-14T03:22:41.998Z,9.15
2023-02-14T03:27:46.778Z,14.82
2023-02-14T03:32:59.596Z,8.18
2023-02-14T03:38:07.806Z,8.75
2023-02-14T03:43:14.409Z,16.38
2023-02-14T03:48:16.494Z,7.55
2023-02-14T03:53:21.330Z,8.30
2023-02-14T03:58:28.073Z,9.02
2023-02-14T04:03:31.106Z,8.57
2023-02-14T04:08:33.388Z,9.48
2023-02-14T04:13:35.526Z,7.28
2023-02-14T04:18:55.638Z,9.52
2023-02-14T04:23:56.957Z,9.68
2023-02-14T04:28:58.304Z,9.85
2023-02-14T04:33:59.659Z,8.10
2023-02-14T04:39:00.964Z,9.43
2023-02-14T04:44:02.277Z,9.02
2023-02-14T04:49:03.606Z,10.63
2023-02-14T04:54:05.126Z,9.25
2023-02-14T04:59:06.749Z,8.27
2023-02-14T05:04:08.557Z,13.15
2023-02-14T05:09:09.928Z,8.57
2023-02-14T05:14:11.328Z,8.93
2023-02-14T05:19:12.675Z,11.35
2023-02-14T05:24:14.716Z,11.90
2023-02-14T05:29:16.086Z,9.73
2023-02-14T05:34:18.557Z,7.07
2023-02-14T05:39:19.884Z,10.05
2023-02-14T05:44:21.280Z,9.38
2023-02-14T05:49:22.603Z,12.38
2023-02-14T05:54:23.915Z,10.45
2023-02-14T05:59:25.211Z,11.63
2023-02-14T06:04:26.624Z,9.60
2023-02-14T06:09:28.072Z,11.43
2023-02-14T06:14:29.384Z,12.52
2023-02-14T06:19:30.788Z,12.10
2023-02-14T06:24:32.139Z,13.05
2023-02-14T06:29:33.467Z,8.93
2023-02-14T06:34:35.784Z,13.50
2023-02-14T06:39:37.079Z,13.95
2023-02-14T06:44:38.422Z,10.43
2023-02-14T06:49:39.892Z,10.55
2023-02-14T06:54:41.205Z,8.90
2023-02-14T06:59:42.534Z,12.90
2023-02-14T07:04:43.914Z,13.10
2023-02-14T07:09:45.369Z,10.88
2023-02-14T07:14:46.740Z,13.05
2023-02-14T07:19:48.100Z,12.57
2023-02-14T07:24:49.404Z,14.70
2023-02-14T07:29:50.861Z,17.75
2023-02-14T07:34:52.287Z,15.95
2023-02-14T07:39:53.742Z,14.75
2023-02-14T07:44:55.058Z,17.60
2023-02-14T07:49:56.493Z,18.67
2023-02-14T07:54:57.984Z,14.52
2023-02-14T07:59:59.337Z,19.13
2023-02-14T08:05:00.792Z,18.73
2023-02-14T08:10:02.162Z,21.08
2023-02-14T08:15:23.927Z,17.98
2023-02-14T08:20:25.374Z,19.38
2023-02-14T08:25:26.975Z,19.65
2023-02-14T08:30:28.586Z,22.30
2023-02-14T08:35:30.038Z,17.38
2023-02-14T08:40:31.490Z,20.02
2023-02-14T08:45:32.865Z,18.58
2023-02-14T08:50:34.406Z,22.33
2023-02-14T08:55:35.968Z,20.23
2023-02-14T09:00:37.470Z,23.60
2023-02-14T09:05:38.937Z,22.88
2023-02-14T09:10:40.286Z,25.20
2023-02-14T09:15:42.982Z,20.77
2023-02-14T09:20:45.359Z,21.80
2023-02-14T09:25:46.743Z,22.48
2023-02-14T09:30:48.137Z,19.55
2023-02-14T09:35:49.711Z,28.25
2023-02-14T09:40:51.162Z,24.30
2023-02-14T09:45:54.830Z,22.33
2023-02-14T09:51:04.811Z,20.92
2023-02-14T09:56:19.071Z,22.80
2023-02-14T10:01:26.242Z,24.00
2023-02-14T10:06:39.588Z,24.85
2023-02-14T10:11:43.606Z,24.15
2023-02-14T10:16:47.694Z,25.40
2023-02-14T10:21:57.433Z,23.33
2023-02-14T10:32:45.829Z,19.77
2023-02-14T10:38:05.136Z,23.55
2023-02-14T10:43:17.959Z,20.67
2023-02-14T10:48:25.172Z,20.45
2023-02-14T10:53:46.438Z,25.63
2023-02-14T10:58:48.790Z,20.08
2023-02-14T11:03:56.119Z,20.35
2023-02-14T11:08:57.628Z,20.95
2023-02-14T11:13:59.096Z,17.40
2023-02-14T11:19:18.475Z,21.95
2023-02-14T11:24:26.065Z,18.00
2023-02-14T11:29:27.473Z,14.38
2023-02-14T11:34:32.384Z,18.20
2023-02-14T11:39:34.612Z,17.88
2023-02-14T11:44:37.222Z,18.08
2023-02-14T11:49:38.605Z,21.60
2023-02-14T11:54:40.801Z,17.38
2023-02-14T11:59:43.946Z,18.40
2023-02-14T12:04:46.961Z,18.98
2023-02-14T12:10:04.317Z,21.42
2023-02-14T12:15:21.145Z,17.58
2023-02-14T12:20:31.826Z,21.63
2023-02-14T12:25:56.514Z,22.77
2023-02-14T12:30:58.518Z,19.58
2023-02-14T12:36:02.914Z,19.40
2023-02-14T12:41:25.208Z,20.98
2023-02-14T12:46:29.815Z,25.75
2023-02-14T12:51:31.371Z,21.73
2023-02-14T12:56:51.431Z,18.52
2023-02-14T13:01:53.826Z,19.52
2023-02-14T13:07:18.005Z,22.48
2023-02-14T13:12:37.297Z,21.02
2023-02-14T13:17:42.997Z,21.30
2023-02-14T13:22:45.145Z,26.65
2023-02-14T13:27:46.502Z,20.23
2023-02-14T13:32:48.329Z,26.88
2023-02-14T13:37:52.105Z,20.65
2023-02-14T13:42:55.055Z,30.48
2023-02-14T13:48:12.985Z,17.38
2023-02-14T13:53:29.290Z,19.70
2023-02-14T13:58:34.468Z,21.05
2023-02-14T14:03:46.619Z,18.45
2023-02-14T14:08:52.065Z,15.77
2023-02-14T14:14:04.263Z,20.17
2023-02-14T14:19:08.890Z,20.85
2023-02-14T14:24:22.727Z,15.25
2023-02-14T14:29:40.829Z,19.88
2023-02-14T14:34:48.213Z,23.08
2023-02-14T14:39:53.875Z,22.70
2023-02-14T14:45:02.783Z,15.25
2023-02-14T14:50:07.316Z,17.05
2023-02-14T14:55:15.285Z,17.65
2023-02-14T15:00:19.932Z,18.02
2023-02-14T15:05:29.666Z,16.13
2023-02-14T15:10:31.432Z,18.50
2023-02-14T15:15:32.835Z,18.30
2023-02-14T15:20:35.177Z,16.98
2023-02-14T15:25:37.625Z,14.80
2023-02-14T15:30:41.446Z,15.35
2023-02-14T15:35:43.779Z,14.80
2023-02-14T15:40:45.530Z,18.52
2023-02-14T15:45:48.547Z,17.33
2023-02-14T15:50:51.166Z,15.93
2023-02-14T15:55:52.765Z,15.00
2023-02-14T16:00:54.450Z,14.23
2023-02-14T16:05:55.960Z,14.57
2023-02-14T16:11:05.053Z,14.77
2023-02-14T16:16:07.676Z,25.25
2023-02-14T16:21:26.764Z,14.80
2023-02-14T16:26:28.158Z,14.63
2023-02-14T16:31:29.675Z,13.63
2023-02-14T16:36:32.270Z,14.07
2023-02-14T16:41:34.237Z,17.67
2023-02-14T16:46:35.735Z,14.00
2023-02-14T16:51:37.296Z,16.73
2023-02-14T16:56:41.495Z,15.05
2023-02-14T17:01:42.886Z,14.00
2023-02-14T17:06:49.580Z,15.95
2023-02-14T17:11:51.804Z,16.30
2023-02-14T17:16:54.326Z,12.77
2023-02-14T17:21:58.974Z,19.80
2023-02-14T17:27:00.280Z,15.52
2023-02-14T17:32:01.825Z,18.08
2023-02-14T17:37:03.180Z,18.38
2023-02-14T17:42:04.668Z,20.92
2023-02-14T17:47:06.261Z,16.20
2023-02-14T17:52:07.774Z,26.70
2023-02-14T17:57:09.419Z,19.90
2023-02-14T18:02:11.162Z,17.63
2023-02-14T18:07:12.581Z,16.63
2023-02-14T18:12:15.148Z,27.45
2023-02-14T18:17:16.627Z,18.63
2023-02-14T18:22:17.942Z,22.67
2023-02-14T18:27:19.265Z,19.63
2023-02-14T18:32:20.673Z,17.50
2023-02-14T18:37:22.078Z,19.35
2023-02-14T18:42:23.376Z,16.33
2023-02-14T18:47:24.730Z,19.67
2023-02-14T18:52:26.040Z,24.48
2023-02-14T18:57:27.402Z,22.73
2023-02-14T19:02:28.936Z,17.98
2023-02-14T19:07:30.318Z,20.98
2023-02-14T19:12:33.200Z,17.40
2023-02-14T19:17:34.694Z,20.52
2023-02-14T19:22:39.490Z,21.13
2023-02-14T19:27:40.901Z,23.60
2023-02-14T19:32:42.206Z,19.80
2023-02-14T19:37:43.535Z,15.77
2023-02-14T19:42:45.326Z,13.88
2023-02-14T19:47:47.706Z,16.33
2023-02-14T19:52:49.175Z,15.32
2023-02-14T19:57:50.667Z,19.00
2023-02-14T20:02:52.083Z,15.95
2023-02-14T20:07:56.400Z,15.32
2023-02-14T20:12:57.824Z,13.77
2023-02-14T20:17:59.180Z,14.38
2023-02-14T20:23:00.592Z,14.82
2023-02-14T20:28:02.433Z,18.95
2023-02-14T20:33:04.463Z,12.48
2023-02-14T20:38:08.542Z,14.32
2023-02-14T20:43:09.961Z,17.50
2023-02-14T20:48:11.306Z,16.40
2023-02-14T20:53:12.674Z,18.65
2023-02-14T20:58:14.088Z,16.95
2023-02-14T21:03:15.530Z,16.77
2023-02-14T21:08:16.880Z,15.95
2023-02-14T21:13:18.283Z,12.73
2023-02-14T21:18:19.809Z,16.77
2023-02-14T21:23:21.161Z,14.65
2023-02-14T21:28:22.598Z,17.48
2023-02-14T21:33:25.277Z,17.92
2023-02-14T21:38:27.607Z,14.80
2023-02-14T21:43:28.963Z,19.20
2023-02-14T21:48:48.998Z,17.88
2023-02-14T21:53:51.104Z,19.70
2023-02-14T21:58:54.000Z,18.73
2023-02-14T22:03:56.252Z,17.85
2023-02-14T22:08:58.260Z,18.58
2023-02-14T22:13:59.889Z,16.40
2023-02-14T22:19:01.195Z,18.00
2023-02-14T22:24:02.565Z,20.27
2023-02-14T22:29:05.380Z,30.48
2023-02-14T22:34:07.961Z,18.83
2023-02-14T22:39:10.513Z,23.38
2023-02-14T22:44:12.431Z,20.17
2023-02-14T22:49:13.776Z,19.25
2023-02-14T22:54:15.854Z,20.08
2023-02-14T22:59:18.381Z,20.30
2023-02-14T23:04:21.658Z,20.17
2023-02-14T23:09:23.289Z,18.23
2023-02-14T23:14:43.381Z,18.20
2023-02-14T23:20:03.556Z,21.75
2023-02-14T23:25:07.029Z,21.60
2023-02-14T23:30:09.911Z,26.42
2023-02-14T23:35:11.308Z,20.55
2023-02-14T23:40:12.748Z,21.85
2023-02-14T23:45:37.265Z,21.67
2023-02-14T23:50:38.633Z,22.30
2023-02-14T23:55:39.965Z,20.67
